Time;durP1;ratioP1;P1;durP2;ratioP2;P2;SDS_P1;SDS_P2;PMS_P1;PMS_P2;Temp;Humidity;BMP_temperature;BMP_pressure;BME280_temperature;BME280_humidity;BME280_pressure;Samples;Min_cycle;Max_cycle;Signal;HPM_P1;HPM_P2
2022/01/15 00:01:44;;;;;;;41.13;22.47;;;-0.20;99.90;;;-1.81;99.03;99448.81;5073616;28;20915;-65
2022/01/15 00:04:11;;;;;;;37.83;21.50;;;-0.20;99.90;;;-1.79;98.07;99450.38;5055702;28;20452;-65
2022/01/15 00:06:38;;;;;;;41.30;22.53;;;-0.20;99.90;;;-2.33;98.68;99385.03;5055617;28;20445;-65
2022/01/15 00:09:07;;;;;;;38.60;20.30;;;-0.20;99.90;;;-1.98;98.72;99447.25;5073641;28;20430;-64
2022/01/15 00:11:35;;;;;;;38.73;20.03;;;-0.20;99.90;;;-1.72;98.26;99449.03;5072077;28;20473;-64
2022/01/15 00:14:12;;;;;;;40.80;20.10;;;-0.20;99.90;;;-1.62;97.33;99445.75;5073643;28;20464;-65
2022/01/15 00:16:46;;;;;;;41.03;21.57;;;-0.10;99.90;;;-1.71;96.55;99433.97;5073747;28;20543;-64
2022/01/15 00:19:16;;;;;;;47.30;20.57;;;-0.10;99.90;;;-1.68;96.14;99435.59;5073712;28;20436;-65
2022/01/15 00:21:43;;;;;;;39.27;19.23;;;-0.10;99.90;;;-1.76;96.24;99446.69;5072796;28;20539;-64
2022/01/15 00:24:11;;;;;;;35.40;19.17;;;-0.10;99.90;;;-1.95;97.23;99425.84;5073584;28;20475;-65
2022/01/15 00:26:38;;;;;;;38.80;21.30;;;-0.20;99.90;;;-2.00;98.26;99434.09;5055566;28;20528;-65
2022/01/15 00:29:06;;;;;;;36.50;20.50;;;-0.30;99.90;;;-1.71;97.83;99445.44;5055599;28;20443;-65
2022/01/15 00:31:34;;;;;;;36.03;18.97;;;-0.20;99.90;;;-1.77;96.39;99424.63;5072676;28;20482;-64
2022/01/15 00:34:01;;;;;;;35.07;19.63;;;-0.10;99.90;;;-1.87;97.54;99431.50;5072644;28;20524;-65
2022/01/15 00:36:28;;;;;;;39.83;20.83;;;-0.20;99.90;;;-1.81;97.65;99438.22;5071943;28;20571;-65
2022/01/15 00:38:55;;;;;;;35.77;18.30;;;-0.20;99.90;;;-1.74;96.91;99431.53;5072238;28;20429;-65
2022/01/15 00:41:23;;;;;;;41.83;20.83;;;-0.10;99.90;;;-1.74;97.28;99435.03;5072410;28;20773;-64
2022/01/15 00:43:50;;;;;;;34.60;20.03;;;-0.10;99.90;;;-1.79;96.70;99421.22;5073284;28;20440;-66
2022/01/15 00:46:17;;;;;;;35.33;18.97;;;-0.10;99.90;;;-1.71;97.02;99418.06;5073354;28;20469;-66
2022/01/15 00:48:44;;;;;;;39.37;19.47;;;-0.10;99.90;;;-1.73;97.29;99418.19;5073558;28;20946;-64
2022/01/15 00:51:11;;;;;;;40.57;20.90;;;-0.10;99.90;;;-1.75;97.78;99420.06;5071991;28;20546;-65
2022/01/15 00:53:38;;;;;;;34.73;19.93;;;-0.10;99.90;;;-1.79;97.56;99409.81;5055005;28;20520;-64
2022/01/15 00:56:05;;;;;;;36.60;18.90;;;-0.10;99.90;;;-1.49;97.59;99419.28;5073384;28;20512;-64
2022/01/15 00:58:34;;;;;;;38.50;20.03;;;0.00;99.90;;;-1.57;96.62;99409.22;5073138;28;20528;-64
2022/01/15 01:01:00;;;;;;;39.63;20.70;;;0.00;99.90;;;-1.40;96.56;99412.53;5054761;28;21032;-64
2022/01/15 01:03:27;;;;;;;38.30;20.70;;;0.10;99.90;;;-1.47;96.05;99415.56;5073660;28;20507;-64
2022/01/15 01:05:54;;;;;;;40.60;20.30;;;0.10;99.90;;;-1.37;96.18;99414.97;5055734;28;20488;-64
2022/01/15 01:08:21;;;;;;;37.47;20.67;;;0.20;99.90;;;-1.39;96.78;99411.56;5072208;28;20946;-64
2022/01/15 01:10:52;;;;;;;39.47;21.97;;;0.20;99.90;;;-1.54;96.15;99414.31;5073168;28;20496;-65
2022/01/15 01:19:58;;;;;;;39.93;21.13;;;0.20;99.90;;;-1.64;97.19;99408.78;5073259;28;20499;-64
2022/01/15 01:22:54;;;;;;;35.53;20.03;;;0.10;99.90;;;-1.41;96.48;99418.78;5076056;28;20445;-65
2022/01/15 01:25:16;;;;;;;37.00;20.30;;;0.20;99.90;;;-1.39;96.03;99403.59;5076394;28;20433;-64
2022/01/15 01:27:47;;;;;;;40.00;20.10;;;0.20;99.90;;;-1.44;96.70;99410.09;5076759;28;20538;-64
2022/01/15 01:30:20;;;;;;;40.70;20.87;;;0.20;99.90;;;-1.34;95.92;99409.44;5076612;28;20785;-64
2022/01/15 01:32:54;;;;;;;39.70;21.43;;;0.20;99.90;;;-1.37;96.34;99405.19;5077237;28;20440;-64
2022/01/15 01:35:34;;;;;;;36.77;21.50;;;0.30;99.90;;;-1.45;96.77;99403.06;5077491;28;20506;-65
2022/01/15 01:38:10;;;;;;;39.63;21.50;;;0.20;99.90;;;-1.58;96.90;99384.50;5076534;28;20457;-64
2022/01/15 01:40:43;;;;;;;43.73;22.10;;;0.20;99.90;;;-1.58;97.72;99402.22;5076578;28;20437;-65
2022/01/15 01:46:08;;;;;;;41.70;23.50;;;0.20;99.90;;;-1.41;97.38;99400.22;5076072;28;20547;-65
2022/01/15 01:48:36;;;;;;;34.83;21.00;;;0.20;99.90;;;-1.37;97.11;99396.41;5076426;28;20452;-65
2022/01/15 01:51:06;;;;;;;46.60;22.77;;;0.20;99.90;;;-1.40;97.89;99389.50;5076413;28;20469;-64
2022/01/15 01:53:33;;;;;;;39.40;21.97;;;0.20;99.90;;;-1.28;97.74;99387.81;5076425;28;20512;-65
2022/01/15 01:56:00;;;;;;;44.10;22.30;;;0.20;99.90;;;-1.28;97.21;99379.84;5076148;28;20440;-65
2022/01/15 01:58:27;;;;;;;44.60;21.27;;;0.30;99.90;;;-1.26;96.59;99375.28;5076260;28;20951;-65
2022/01/15 02:00:55;;;;;;;42.97;23.10;;;0.30;99.90;;;-1.20;96.88;99372.19;5076197;28;20453;-65
2022/01/15 02:03:21;;;;;;;40.37;22.60;;;0.40;99.90;;;-1.21;96.31;99373.16;5058345;28;20961;-66
2022/01/15 02:05:51;;;;;;;39.63;23.47;;;0.40;99.90;;;-1.17;97.61;99373.81;5076866;28;20487;-65
2022/01/15 02:08:18;;;;;;;42.70;22.47;;;0.40;99.90;;;-1.25;98.33;99371.69;5075884;28;20818;-65
2022/01/15 02:10:45;;;;;;;39.30;22.07;;;0.30;99.90;;;-1.33;98.37;99368.69;5075644;28;20528;-65
2022/01/15 02:13:13;;;;;;;39.33;21.30;;;0.30;99.90;;;-1.29;98.01;99368.38;5076267;28;20520;-64
2022/01/15 02:15:41;;;;;;;40.00;22.30;;;0.30;99.90;;;-1.33;98.33;99366.03;5075721;28;20514;-66
2022/01/15 02:18:08;;;;;;;41.27;22.20;;;0.30;99.90;;;-1.37;99.14;99368.06;5074774;28;20549;-64
2022/01/15 02:23:36;;;;;;;44.37;22.20;;;0.30;99.90;;;-1.44;98.58;99356.19;5073148;28;20491;-64
2022/01/15 02:26:06;;;;;;;41.00;21.30;;;0.20;99.90;;;-1.31;97.66;99361.47;5075517;28;20532;-65
2022/01/15 02:28:35;;;;;;;42.30;21.70;;;0.30;99.90;;;-1.50;98.28;99356.63;5075714;28;20473;-64
2022/01/15 02:31:06;;;;;;;46.60;22.33;;;0.20;99.90;;;-1.48;98.76;99339.63;5073395;28;20524;-65
2022/01/15 02:33:33;;;;;;;43.60;23.50;;;0.20;99.90;;;-1.50;98.69;99344.19;5074303;28;20522;-64
2022/01/15 02:36:02;;;;;;;42.50;20.97;;;0.20;99.90;;;-1.63;98.59;99349.50;5075542;28;20856;-63
2022/01/15 02:38:29;;;;;;;44.90;20.93;;;0.10;99.90;;;-1.69;100.00;99357.03;5075429;28;20483;-65
2022/01/15 02:40:56;;;;;;;54.23;25.53;;;0.00;99.90;;;-1.44;99.85;99357.06;5057410;28;20460;-64
2022/01/15 02:43:29;;;;;;;45.27;24.30;;;0.10;99.90;;;-1.40;100.00;99351.53;5073792;28;20776;-64
2022/01/15 02:45:58;;;;;;;44.33;23.40;;;0.20;99.90;;;-1.32;100.00;99349.19;5075965;28;20437;-65
2022/01/15 02:48:29;;;;;;;51.20;23.63;;;0.20;99.90;;;-1.63;99.47;99298.28;5074734;28;20531;-76
2022/01/15 02:50:57;;;;;;;54.67;25.00;;;0.30;99.90;;;-1.60;99.66;99343.13;5075614;28;20490;-65
2022/01/15 02:53:26;;;;;;;48.73;23.87;;;0.20;99.90;;;-1.69;100.00;99351.72;5074965;28;20446;-65
2022/01/15 02:55:55;;;;;;;46.43;23.83;;;0.00;99.90;;;-1.47;100.00;99341.34;5075189;28;20441;-64
2022/01/15 02:58:24;;;;;;;51.70;24.90;;;0.10;99.90;;;-1.47;100.00;99340.50;5074358;28;20466;-64
2022/01/15 03:00:53;;;;;;;50.83;24.57;;;0.20;99.90;;;-1.35;99.71;99333.50;5073941;28;20451;-64
2022/01/15 03:03:20;;;;;;;50.03;23.73;;;0.20;99.90;;;-1.22;98.27;99339.63;5074759;28;20525;-64
2022/01/15 03:05:47;;;;;;;51.57;23.63;;;0.30;99.90;;;-1.43;98.89;99334.88;5074252;28;20499;-64
2022/01/15 03:08:14;;;;;;;54.77;25.17;;;0.20;99.90;;;-1.32;99.41;99333.28;5075270;28;20429;-64
2022/01/15 03:10:42;;;;;;;55.50;24.10;;;0.30;99.90;;;-1.45;99.56;99336.75;5074946;28;20532;-65
2022/01/15 03:13:11;;;;;;;48.17;22.33;;;0.20;99.90;;;-1.38;100.00;99331.88;5056562;28;20892;-64
2022/01/15 03:15:39;;;;;;;49.73;23.50;;;0.30;99.90;;;-1.45;99.86;99322.69;5073540;28;20448;-64
2022/01/15 03:18:06;;;;;;;53.57;23.87;;;0.30;99.90;;;-1.35;99.70;99328.19;5057683;28;20894;-65
2022/01/15 03:20:33;;;;;;;42.57;21.10;;;0.20;99.90;;;-1.30;99.12;99318.09;5075562;28;20556;-64
2022/01/15 03:23:00;;;;;;;49.80;23.00;;;0.30;99.90;;;-1.29;99.48;99325.94;5074401;28;20855;-64
2022/01/15 03:25:27;;;;;;;47.13;22.57;;;0.30;99.90;;;-1.13;98.87;99324.88;5073312;28;20529;-64
2022/01/15 03:27:56;;;;;;;56.43;24.10;;;0.40;99.90;;;-1.29;98.79;99328.59;5074546;28;20515;-64
2022/01/15 03:30:22;;;;;;;50.60;23.40;;;0.40;99.90;;;-0.95;98.83;99332.47;5074247;28;20908;-65
2022/01/15 03:32:49;;;;;;;48.80;23.00;;;0.50;99.90;;;-0.93;97.76;99323.47;5073392;28;20495;-65
2022/01/15 03:35:18;;;;;;;46.43;23.30;;;0.60;99.90;;;-0.82;97.30;99324.50;5074390;28;20510;-65
2022/01/15 03:37:45;;;;;;;44.03;22.37;;;0.70;99.90;;;-0.80;96.51;99325.25;5073084;28;20475;-64
2022/01/15 03:40:15;;;;;;;51.00;23.60;;;0.70;99.90;;;-0.70;96.21;99318.28;5074296;28;20495;-64
2022/01/15 03:42:43;;;;;;;44.77;23.80;;;0.80;99.90;;;-0.73;96.15;99318.53;5073228;28;20441;-65
2022/01/15 03:45:13;;;;;;;41.07;21.17;;;0.80;99.90;;;-0.68;95.81;99327.03;5056270;28;20948;-65
2022/01/15 03:47:41;;;;;;;46.00;21.50;;;0.80;99.90;;;-0.69;95.60;99322.63;5072925;28;20434;-65
2022/01/15 03:50:09;;;;;;;43.57;23.73;;;0.80;99.90;;;-0.88;95.70;99316.00;5074403;28;20989;-65
2022/01/15 03:52:36;;;;;;;47.50;22.90;;;0.80;99.90;;;-1.06;96.84;99323.50;5074235;28;20532;-64
2022/01/15 03:55:11;;;;;;;46.80;23.17;;;0.70;99.80;;;-1.15;97.99;99319.66;5074186;28;20473;-63
2022/01/15 03:57:40;;;;;;;53.83;25.43;;;0.60;99.90;;;-0.98;98.19;99330.06;5074353;28;20464;-64
2022/01/15 04:00:12;;;;;;;54.47;25.00;;;0.60;99.90;;;-0.91;97.39;99326.00;5072807;28;20857;-64
2022/01/15 04:02:39;;;;;;;46.37;23.73;;;0.70;99.90;;;-1.09;97.88;99323.69;5073979;28;20432;-64
2022/01/15 04:05:07;;;;;;;41.77;21.17;;;0.60;99.90;;;-1.29;98.94;99322.44;5074115;28;20480;-64
2022/01/15 04:07:34;;;;;;;50.53;22.97;;;0.40;99.90;;;-1.18;99.18;99325.19;5073118;28;20437;-65
2022/01/15 04:10:01;;;;;;;40.57;20.43;;;0.40;99.90;;;-1.08;98.28;99325.38;5073870;28;20465;-65
2022/01/15 04:12:28;;;;;;;51.67;21.30;;;0.50;99.90;;;-1.01;98.61;99323.16;5073816;28;20893;-64
2022/01/15 04:14:56;;;;;;;43.23;21.43;;;0.60;99.90;;;-1.16;98.19;99328.59;5073806;28;20445;-65
2022/01/15 04:17:25;;;;;;;44.10;20.00;;;0.50;99.90;;;-1.12;99.04;99323.91;5073905;28;20539;-64
2022/01/15 04:19:52;;;;;;;39.43;20.83;;;0.50;99.90;;;-1.24;98.95;99308.88;5072420;28;20474;-64
2022/01/15 04:22:19;;;;;;;40.67;20.60;;;0.50;99.90;;;-1.25;98.78;99326.59;5072043;28;20960;-64
2022/01/15 04:24:46;;;;;;;45.77;21.47;;;0.40;99.90;;;-1.06;99.10;99330.59;5073672;28;20468;-64
2022/01/15 04:27:13;;;;;;;40.87;20.43;;;0.50;99.90;;;-1.06;98.32;99328.81;5073285;28;20528;-64
2022/01/15 04:29:40;;;;;;;40.77;19.93;;;0.60;99.90;;;-0.96;98.70;99325.47;5073508;28;20524;-64
2022/01/15 04:32:09;;;;;;;37.70;20.90;;;0.60;99.90;;;-0.91;98.31;99320.69;5071952;28;20842;-64
2022/01/15 04:34:37;;;;;;;40.87;20.37;;;0.70;99.90;;;-0.96;97.75;99326.34;5072090;28;20624;-64
2022/01/15 04:37:09;;;;;;;33.47;19.63;;;0.70;99.90;;;-1.01;98.22;99320.50;5072124;28;20990;-65
2022/01/15 04:39:36;;;;;;;38.37;21.70;;;0.60;99.90;;;-0.95;97.35;99329.81;5072023;28;20828;-65
2022/01/15 04:42:04;;;;;;;40.57;22.07;;;0.70;99.90;;;-1.17;98.43;99318.94;5073805;28;20492;-65
2022/01/15 04:44:31;;;;;;;32.83;18.87;;;0.50;99.90;;;-1.10;98.73;99323.81;5073725;28;20451;-65
2022/01/15 04:46:59;;;;;;;44.67;21.13;;;0.50;99.90;;;-0.89;98.87;99324.94;5073408;28;20521;-65
2022/01/15 04:49:26;;;;;;;35.03;18.53;;;0.60;99.90;;;-1.05;98.11;99324.34;5071869;28;20808;-66
2022/01/15 04:51:54;;;;;;;42.07;19.77;;;0.60;99.90;;;-1.18;99.13;99313.75;5055304;28;20541;-64
2022/01/15 04:54:21;;;;;;;42.10;21.70;;;0.50;99.90;;;-0.73;97.93;99318.53;5072543;28;20474;-65
2022/01/15 04:56:48;;;;;;;37.60;18.37;;;0.70;99.90;;;-0.87;98.19;99316.88;5077271;28;20494;-65
2022/01/15 04:59:15;;;;;;;35.93;19.07;;;0.60;99.90;;;-0.83;97.48;99315.69;5077357;28;20487;-64
2022/01/15 05:01:42;;;;;;;43.97;21.47;;;0.70;99.90;;;-0.87;97.00;99312.41;5077134;28;20473;-65
2022/01/15 05:04:09;;;;;;;40.10;20.60;;;0.70;99.90;;;-1.00;97.62;99303.63;5059055;28;20450;-64
2022/01/15 05:06:36;;;;;;;38.57;20.47;;;0.60;99.90;;;-0.86;97.89;99303.47;5077312;28;20468;-64
2022/01/15 05:09:05;;;;;;;46.20;21.40;;;0.60;99.90;;;-0.79;96.77;99316.31;5075587;28;20946;-65
2022/01/15 05:11:44;;;;;;;39.73;19.63;;;0.80;99.90;;;-0.84;96.42;99298.06;5075948;28;20452;-64
2022/01/15 05:14:12;;;;;;;42.20;20.90;;;0.80;99.90;;;-0.79;96.20;99308.34;5077220;28;20524;-64
2022/01/15 05:16:39;;;;;;;39.90;21.00;;;0.80;99.90;;;-1.12;97.66;99291.25;5075768;28;20438;-65
2022/01/15 05:19:06;;;;;;;45.63;20.87;;;0.70;99.90;;;-1.09;98.16;99305.13;5077036;28;20475;-65
2022/01/15 05:21:34;;;;;;;38.43;18.60;;;0.60;99.90;;;-0.95;98.17;99284.72;5076740;28;20934;-65
2022/01/15 05:24:01;;;;;;;41.07;21.43;;;0.60;99.90;;;-0.96;97.93;99301.59;5076943;28;20519;-65
2022/01/15 05:26:29;;;;;;;45.67;22.47;;;0.60;99.90;;;-0.83;97.73;99301.56;5058953;28;20465;-64
2022/01/15 05:28:56;;;;;;;40.00;21.27;;;0.70;99.90;;;-0.95;97.34;99305.94;5075645;28;20528;-64
2022/01/15 05:31:24;;;;;;;40.50;20.90;;;0.70;99.90;;;-0.88;97.89;99300.09;5058786;28;20919;-65
2022/01/15 05:33:51;;;;;;;43.90;21.17;;;0.80;99.90;;;-0.90;97.47;99295.88;5076637;28;20920;-65
2022/01/15 05:36:18;;;;;;;42.53;19.37;;;0.70;99.90;;;-0.90;98.17;99294.03;5059543;28;20468;-65
2022/01/15 05:38:47;;;;;;;38.40;21.07;;;0.70;99.90;;;-0.69;97.41;99293.44;5076532;28;20932;-65
2022/01/15 05:41:14;;;;;;;36.60;18.50;;;0.80;99.90;;;-0.55;96.65;99283.63;5058978;28;20436;-64
2022/01/15 05:43:43;;;;;;;34.83;19.37;;;0.90;99.90;;;-0.64;96.31;99286.00;5075046;28;20761;-64
2022/01/15 05:46:10;;;;;;;45.83;21.30;;;0.90;99.90;;;-0.68;95.97;99287.19;5076263;28;20995;-65
2022/01/15 05:48:37;;;;;;;39.40;20.93;;;0.90;99.90;;;-0.90;97.25;99283.44;5075279;28;20538;-64
2022/01/15 05:51:04;;;;;;;42.60;21.50;;;0.80;99.90;;;-1.04;98.62;99273.81;5075350;28;20532;-65
2022/01/15 05:53:31;;;;;;;42.90;20.80;;;0.70;99.90;;;-0.52;97.16;99289.56;5075080;28;20463;-64
2022/01/15 05:55:58;;;;;;;38.40;19.80;;;0.90;99.90;;;-0.36;95.65;99281.31;5076743;28;20435;-65
2022/01/15 05:58:24;;;;;;;36.60;19.93;;;1.10;99.90;;;-0.50;95.96;99287.63;5075805;28;20797;-64
2022/01/15 06:00:53;;;;;;;39.23;19.13;;;1.10;99.90;;;-0.65;96.60;99289.63;5076256;28;20445;-66
2022/01/15 06:03:20;;;;;;;39.10;19.77;;;1.00;99.90;;;-0.61;97.26;99291.09;5076723;28;20468;-64
2022/01/15 06:05:47;;;;;;;42.23;20.03;;;1.00;99.90;;;-0.54;96.53;99269.38;5074932;28;20967;-65
2022/01/15 06:08:14;;;;;;;40.57;21.73;;;1.00;99.90;;;-0.58;96.76;99280.22;5076776;28;20539;-64
2022/01/15 06:10:41;;;;;;;36.70;20.03;;;1.00;99.90;;;-0.47;96.40;99267.97;5076234;28;20882;-64
2022/01/15 06:13:08;;;;;;;40.93;20.83;;;1.10;99.90;;;-0.55;96.14;99280.97;5058163;28;20433;-64
2022/01/15 06:15:35;;;;;;;40.67;21.43;;;1.00;99.90;;;-0.60;96.75;99278.66;5075291;28;20460;-65
2022/01/15 06:18:04;;;;;;;42.03;20.43;;;1.00;99.90;;;-0.52;97.00;99273.63;5074931;28;20461;-64
2022/01/15 06:20:31;;;;;;;43.20;22.47;;;1.00;99.90;;;-0.52;97.57;99272.78;5074703;28;20437;-65
2022/01/15 06:22:58;;;;;;;37.17;20.30;;;1.00;99.90;;;-0.55;97.16;99279.16;5076021;28;20511;-65
2022/01/15 06:25:25;;;;;;;40.77;21.77;;;1.10;99.90;;;-0.61;97.21;99283.13;5076065;28;20473;-65
2022/01/15 06:27:52;;;;;;;37.17;20.20;;;1.10;99.90;;;-0.44;97.64;99278.38;5075706;28;20538;-65
2022/01/15 06:30:19;;;;;;;41.23;21.20;;;1.00;99.90;;;-0.21;95.96;99283.78;5074547;28;20448;-65
2022/01/15 06:32:46;;;;;;;35.20;20.70;;;1.20;99.90;;;-0.36;95.38;99276.00;5075068;28;20771;-64
2022/01/15 06:35:17;;;;;;;37.50;21.63;;;1.20;99.90;;;-0.25;96.05;99269.88;5074407;28;20472;-66
2022/01/15 06:37:47;;;;;;;34.53;20.57;;;1.20;99.90;;;-0.06;95.23;99276.44;5076022;28;20540;-65
2022/01/15 06:40:15;;;;;;;34.03;21.00;;;1.40;99.90;;;-0.08;94.77;99287.19;5075687;28;20429;-65
2022/01/15 06:42:43;;;;;;;38.90;22.23;;;1.40;98.90;;;-0.15;95.28;99285.97;5074291;28;20437;-64
2022/01/15 06:45:11;;;;;;;40.03;20.77;;;1.40;98.30;;;-0.41;96.60;99282.63;5074321;28;20463;-66
2022/01/15 06:47:38;;;;;;;37.20;20.30;;;1.30;99.70;;;-0.31;96.95;99286.25;5074451;28;20446;-69
2022/01/15 06:50:08;;;;;;;36.07;21.77;;;1.20;99.90;;;-0.14;96.26;99292.97;5075128;28;20790;-70
2022/01/15 06:52:38;;;;;;;37.43;20.90;;;1.30;99.90;;;-0.07;95.82;99299.53;5074488;28;20946;-71
2022/01/15 06:55:08;;;;;;;40.67;21.70;;;1.40;99.90;;;-0.13;96.37;99284.03;5075826;28;20851;-69
2022/01/15 06:57:35;;;;;;;41.30;22.17;;;1.40;99.90;;;0.13;95.11;99294.50;5074155;28;20495;-71
2022/01/15 07:00:04;;;;;;;41.00;23.47;;;1.50;99.90;;;0.05;94.92;99280.94;5057636;28;20552;-72
2022/01/15 07:02:31;;;;;;;41.07;21.57;;;1.60;99.90;;;0.16;94.56;99294.28;5075526;28;20468;-70
2022/01/15 07:04:58;;;;;;;41.63;23.03;;;1.60;99.70;;;0.38;92.91;99276.66;5073946;28;20791;-69
2022/01/15 07:07:25;;;;;;;39.40;22.53;;;1.80;95.80;;;0.37;93.14;99285.59;5057614;28;20426;-71
2022/01/15 07:09:56;;;;;;;36.23;21.20;;;1.80;95.80;;;0.41;92.24;99265.81;5057457;28;20434;-75
2022/01/15 07:12:24;;;;;;;38.67;21.97;;;1.90;95.00;;;0.49;92.37;99268.69;5074537;28;20445;-75
2022/01/15 07:14:51;;;;;;;37.60;22.33;;;2.00;94.20;;;0.54;91.84;99271.00;5075284;28;20480;-71
2022/01/15 07:17:18;;;;;;;37.97;22.30;;;2.00;93.70;;;0.37;92.73;99257.22;5072952;28;20515;-77
2022/01/15 07:19:45;;;;;;;39.87;23.30;;;2.00;93.90;;;0.22;93.91;99274.34;5073094;28;20959;-68
2022/01/15 07:22:12;;;;;;;37.83;21.67;;;1.80;95.30;;;0.12;94.81;99272.38;5075074;28;20447;-67
2022/01/15 07:24:39;;;;;;;39.53;21.23;;;1.70;97.90;;;0.31;94.74;99271.00;5073793;28;20475;-67
2022/01/15 07:27:07;;;;;;;39.80;22.40;;;1.80;99.30;;;0.17;95.40;99261.41;5072437;28;20556;-66
2022/01/15 07:29:37;;;;;;;34.30;19.33;;;1.70;99.90;;;0.43;93.88;99266.53;5074214;28;20540;-67
2022/01/15 07:32:05;;;;;;;35.73;19.30;;;1.80;97.90;;;0.45;93.53;99261.94;5073358;28;20944;-67
2022/01/15 07:34:32;;;;;;;39.60;21.10;;;1.90;96.70;;;0.34;94.09;99265.44;5055062;28;20490;-66
2022/01/15 07:37:00;;;;;;;38.43;20.30;;;1.90;97.00;;;0.28;95.00;99260.56;5054515;28;20449;-66
2022/01/15 07:39:28;;;;;;;41.20;20.90;;;1.80;97.70;;;0.12;94.44;99235.16;5054546;28;20554;-67
2022/01/15 07:41:56;;;;;;;35.43;20.50;;;1.90;97.40;;;0.12;94.29;99267.06;5054308;28;20513;-66
2022/01/15 07:44:24;;;;;;;41.60;23.57;;;1.70;95.70;;;0.10;95.72;99262.84;5054210;28;20927;-66
2022/01/15 07:46:51;;;;;;;41.27;22.37;;;1.70;99.60;;;0.16;95.29;99267.69;5036210;28;20478;-66
2022/01/15 07:49:18;;;;;;;40.63;21.20;;;1.70;98.80;;;0.10;95.38;99266.34;5054328;28;20768;-65
2022/01/15 07:51:45;;;;;;;38.13;21.93;;;1.70;98.60;;;0.17;95.02;99269.38;5054087;28;20454;-66
2022/01/15 07:54:12;;;;;;;52.23;22.67;;;1.70;98.60;;;-0.05;96.44;99265.72;5053794;28;20810;-66
2022/01/15 07:56:39;;;;;;;41.73;23.30;;;1.60;99.80;;;0.51;93.57;99258.78;5054221;28;20529;-66
2022/01/15 07:59:06;;;;;;;44.23;22.10;;;1.90;97.60;;;0.45;93.81;99261.94;5054169;28;20549;-67
2022/01/15 08:01:35;;;;;;;41.97;21.20;;;1.90;96.30;;;0.81;95.21;99261.81;5053729;28;20497;-65
2022/01/15 08:04:03;;;;;;;40.53;20.50;;;2.10;99.90;;;0.74;93.75;99261.44;5036302;28;20474;-66
2022/01/15 08:06:30;;;;;;;32.83;18.27;;;2.20;97.40;;;0.79;93.41;99272.56;5053419;28;20943;-65
2022/01/15 08:08:57;;;;;;;38.60;21.90;;;2.20;96.40;;;0.89;91.13;99261.19;5053530;28;20441;-66
2022/01/15 08:11:24;;;;;;;34.10;20.20;;;2.40;92.70;;;0.76;91.96;99258.66;5053869;28;20462;-66
2022/01/15 08:13:51;;;;;;;41.63;22.00;;;2.30;93.10;;;0.75;91.23;99260.47;5035981;28;20438;-66
2022/01/15 08:16:18;;;;;;;35.73;20.73;;;2.30;92.60;;;0.53;92.30;99269.31;5035903;28;20446;-66
2022/01/15 08:18:46;;;;;;;34.47;20.00;;;2.20;92.90;;;0.71;91.99;99245.72;5052111;28;20465;-65
2022/01/15 08:21:13;;;;;;;42.40;21.13;;;2.20;93.50;;;1.03;90.56;99244.09;5052865;28;20458;-66
2022/01/15 08:23:40;;;;;;;34.87;20.57;;;2.30;93.40;;;0.76;90.77;99251.53;5053309;28;20525;-66
2022/01/15 08:26:07;;;;;;;37.63;20.47;;;2.30;92.20;;;0.73;91.17;99253.56;5053699;28;20438;-67
2022/01/15 08:28:34;;;;;;;32.10;19.20;;;2.30;92.50;;;0.68;91.04;99251.28;5036217;28;20766;-67
2022/01/15 08:31:01;;;;;;;38.27;19.33;;;2.20;92.20;;;0.80;91.47;99246.81;5052069;28;20447;-68
2022/01/15 08:33:28;;;;;;;37.30;20.80;;;2.30;93.50;;;0.73;91.30;99264.22;5053801;28;20444;-67
2022/01/15 08:35:56;;;;;;;36.03;20.47;;;2.30;92.50;;;0.86;91.10;99254.28;5053840;28;20448;-67
2022/01/15 08:38:23;;;;;;;37.83;20.23;;;2.30;92.90;;;0.64;91.27;99260.47;5053589;28;20466;-66
2022/01/15 08:40:51;;;;;;;34.60;20.03;;;2.30;92.30;;;0.80;91.14;99258.28;5052844;28;20443;-68
2022/01/15 08:43:18;;;;;;;33.80;20.77;;;2.30;92.40;;;0.98;89.91;99252.44;5051878;28;20489;-68
2022/01/15 08:45:47;;;;;;;37.93;20.70;;;2.40;91.60;;;0.94;89.77;99254.53;5052113;28;20434;-67
2022/01/15 08:48:19;;;;;;;34.50;19.27;;;2.50;91.30;;;1.10;89.38;99251.47;5053428;28;20434;-68
2022/01/15 08:50:46;;;;;;;33.30;19.90;;;2.50;91.30;;;0.99;89.79;99254.19;5053291;28;20944;-68
2022/01/15 08:53:17;;;;;;;38.00;21.60;;;2.50;91.50;;;1.02;89.57;99248.59;5052956;28;20525;-70
2022/01/15 08:55:44;;;;;;;45.97;20.73;;;2.50;91.20;;;1.18;89.50;99242.03;5035511;28;20446;-69
2022/01/15 08:58:11;;;;;;;40.07;22.37;;;2.60;91.40;;;1.28;88.79;99242.94;5051803;28;20470;-70
2022/01/15 09:00:38;;;;;;;38.63;22.50;;;2.60;91.30;;;1.21;89.18;99247.94;5051952;28;20457;-70
2022/01/15 09:03:06;;;;;;;39.77;22.10;;;2.70;91.20;;;1.27;88.76;99233.28;5053235;28;20438;-70
2022/01/15 09:05:34;;;;;;;42.10;23.70;;;2.80;90.70;;;1.25;89.37;99251.19;5054400;28;20534;-69
2022/01/15 09:08:01;;;;;;;38.70;21.73;;;2.80;90.90;;;1.44;88.97;99247.00;5052933;28;20441;-69
2022/01/15 09:10:30;;;;;;;33.47;19.40;;;2.80;91.20;;;1.44;88.89;99252.34;5053151;28;20541;-68
2022/01/15 09:12:57;;;;;;;43.90;24.50;;;2.90;91.00;;;1.39;88.94;99252.75;5053113;28;20459;-68
2022/01/15 09:15:24;;;;;;;46.80;24.43;;;2.90;90.80;;;1.24;89.96;99250.38;5053214;28;20529;-69
2022/01/15 09:17:51;;;;;;;43.90;24.40;;;2.80;91.10;;;1.43;89.35;99251.50;5053686;28;20438;-68
2022/01/15 09:20:18;;;;;;;49.73;25.80;;;2.80;91.20;;;1.47;87.58;99212.16;5053057;28;20490;-67
2022/01/15 09:22:45;;;;;;;39.07;24.00;;;3.10;90.50;;;1.73;87.02;99257.06;5035128;28;20472;-67
2022/01/15 09:25:13;;;;;;;44.60;23.47;;;3.10;89.00;;;1.74;87.72;99259.63;5035941;28;20440;-68
2022/01/15 09:30:28;;;;;;;44.43;25.30;;;3.10;89.50;;;1.56;87.23;99251.31;5053223;28;20434;-70
2022/01/15 09:32:58;;;;;;;43.87;24.20;;;3.20;88.00;;;1.64;87.36;99253.34;5053081;28;20538;-68
2022/01/15 09:35:27;;;;;;;39.07;21.87;;;3.20;88.40;;;1.86;87.57;99251.56;5053791;28;20450;-67
2022/01/15 09:37:55;;;;;;;33.30;20.57;;;3.20;90.00;;;2.09;85.19;99252.28;5035410;28;20521;-69
2022/01/15 09:40:25;;;;;;;37.80;19.90;;;3.40;86.30;;;2.29;84.74;99247.06;5052335;28;20464;-75
2022/01/15 09:42:55;;;;;;;38.83;20.53;;;3.60;86.20;;;2.43;84.00;99249.38;5055235;28;20439;-70
2022/01/15 09:45:24;;;;;;;39.37;21.03;;;3.80;84.70;;;2.18;84.18;99248.81;5056614;28;20449;-72
2022/01/15 09:47:57;;;;;;;38.93;22.00;;;3.60;84.20;;;2.04;85.06;99257.16;5056853;28;20985;-74
2022/01/15 09:50:26;;;;;;;36.17;22.07;;;3.70;84.20;;;1.73;85.94;99257.94;5057003;28;20474;-74
2022/01/15 09:52:55;;;;;;;33.40;19.87;;;3.50;84.40;;;1.83;86.06;99255.34;5038160;28;20801;-75
2022/01/15 09:55:23;;;;;;;34.13;20.87;;;3.40;85.70;;;1.62;85.70;99186.91;5039442;28;20488;-74
2022/01/15 09:57:53;;;;;;;36.03;20.80;;;3.50;85.80;;;2.26;84.71;99241.03;5039115;28;20444;-77
2022/01/15 10:00:23;;;;;;;34.07;19.20;;;3.70;85.20;;;2.59;85.04;99206.22;5059626;28;20508;-77
2022/01/15 10:02:53;;;;;;;33.97;21.53;;;3.90;87.50;;;2.72;82.92;99237.16;5040963;28;20518;-69
2022/01/15 10:05:21;;;;;;;34.43;19.63;;;4.10;84.20;;;2.14;84.25;99234.06;5056158;28;20453;-69
2022/01/15 10:07:58;;;;;;;31.13;19.43;;;3.90;83.10;;;2.08;85.51;99237.28;5038754;28;20437;-70
2022/01/15 10:10:27;;;;;;;33.90;19.93;;;3.80;84.00;;;2.25;84.62;99239.34;5056093;28;20485;-70
2022/01/15 10:12:56;;;;;;;33.37;19.60;;;3.80;84.10;;;2.10;85.04;99237.97;5055985;28;20445;-69
2022/01/15 10:15:23;;;;;;;32.03;19.20;;;3.70;84.00;;;2.03;84.74;99236.81;5056296;28;20461;-70
2022/01/15 10:17:50;;;;;;;29.40;18.30;;;3.70;83.80;;;2.45;83.97;99239.44;5056991;28;20542;-64
2022/01/15 10:20:21;;;;;;;32.80;19.37;;;3.80;84.50;;;2.33;84.51;99222.66;5057997;28;20459;-65
2022/01/15 10:22:51;;;;;;;39.70;17.60;;;3.90;84.60;;;2.58;83.68;99233.88;5075880;28;20462;-63
2022/01/15 10:25:22;;;;;;;26.27;16.33;;;4.00;84.10;;;2.48;83.65;99225.81;5057638;28;21004;-65
2022/01/15 10:27:53;;;;;;;22.77;15.83;;;4.10;83.00;;;2.42;84.79;99226.38;5075869;28;20507;-76
2022/01/15 10:30:24;;;;;;;26.03;16.30;;;4.00;83.50;;;2.64;85.35;99225.34;5075747;28;20522;-77
2022/01/15 10:32:58;;;;;;;33.67;18.40;;;4.00;88.10;;;2.57;84.64;99228.66;5076008;28;20449;-77
2022/01/15 10:35:32;;;;;;;24.23;15.60;;;4.10;84.50;;;2.38;85.50;99217.78;5075809;28;20441;-77